Time;durP1;ratioP1;P1;durP2;ratioP2;P2;SDS_P1;SDS_P2;PMS_P1;PMS_P2;Temp;Humidity;BMP_temperature;BMP_pressure;BME280_temperature;BME280_humidity;BME280_pressure;Samples;Min_cycle;Max_cycle;Signal;HPM_P1;HPM_P2
2024/01/13 00:02:06;;;;;;;0.80;0.75;;;;;;;5.79;71.40;103027.91;5079958;28;20029;-78
2024/01/13 00:04:32;;;;;;;0.73;0.73;;;;;;;5.79;71.69;103036.69;5077235;28;20036;-78
2024/01/13 00:06:58;;;;;;;0.10;0.10;;;;;;;5.83;71.50;103027.16;5077300;28;20024;-78
2024/01/13 00:09:24;;;;;;;0.30;0.30;;;;;;;5.89;71.11;103029.13;5086702;28;20413;-79
2024/01/13 00:11:50;;;;;;;0.10;0.10;;;;;;;5.88;71.68;103027.31;5072775;28;20021;-77
2024/01/13 00:14:17;;;;;;;0.10;0.10;;;;;;;5.90;71.64;103015.13;5075766;28;20376;-79
2024/01/13 00:16:43;;;;;;;0.20;0.20;;;;;;;5.92;71.49;103014.34;5077160;28;20044;-79
2024/01/13 00:19:10;;;;;;;0.10;0.10;;;;;;;5.93;71.57;103009.97;5079838;28;20056;-79
2024/01/13 00:21:36;;;;;;;0.10;0.10;;;;;;;5.94;71.22;103004.78;5077711;28;20032;-79
2024/01/13 00:24:02;;;;;;;0.20;0.20;;;;;;;5.93;71.15;103000.34;5071052;28;20033;-79
2024/01/13 00:26:28;;;;;;;0.20;0.20;;;;;;;5.95;71.02;102996.00;5070933;28;20528;-78
2024/01/13 00:28:55;;;;;;;0.10;0.10;;;;;;;5.97;71.34;102999.59;5085459;28;20025;-79
2024/01/13 00:31:21;;;;;;;0.10;0.10;;;;;;;5.95;71.66;103001.28;5083079;28;20584;-79
2024/01/13 00:33:47;;;;;;;0.10;0.10;;;;;;;5.94;72.02;102995.97;5082447;28;20020;-78
2024/01/13 00:36:13;;;;;;;0.43;0.43;;;;;;;6.00;71.57;102990.94;5082676;28;20082;-79
2024/01/13 00:38:39;;;;;;;0.30;0.30;;;;;;;6.01;71.51;102990.09;5082125;28;20032;-78
2024/01/13 00:41:06;;;;;;;0.10;0.10;;;;;;;6.03;71.63;102991.06;5084309;28;20024;-77
2024/01/13 00:43:33;;;;;;;0.20;0.20;;;;;;;6.00;71.68;102980.41;5094592;28;20025;-77
2024/01/13 00:45:59;;;;;;;0.15;0.15;;;;;;;6.04;72.01;102976.16;5087118;28;20056;-78
2024/01/13 00:48:25;;;;;;;0.22;0.22;;;;;;;6.06;71.78;102975.34;5086628;28;20033;-78
2024/01/13 00:50:51;;;;;;;0.10;0.10;;;;;;;6.07;71.70;102971.88;5086328;28;20504;-79
2024/01/13 00:53:18;;;;;;;0.10;0.10;;;;;;;6.08;71.68;102962.25;5085503;28;20161;-77
2024/01/13 00:55:44;;;;;;;0.10;0.10;;;;;;;6.09;71.38;102958.78;5081867;28;20036;-77
2024/01/13 00:58:11;;;;;;;0.10;0.10;;;;;;;6.13;71.51;102955.38;5082515;28;20060;-77
2024/01/13 01:00:37;;;;;;;0.20;0.20;;;;;;;6.13;71.53;102956.28;5079750;28;20044;-77
2024/01/13 01:03:04;;;;;;;0.10;0.10;;;;;;;6.15;71.55;102959.84;5083417;28;20403;-77
2024/01/13 01:05:30;;;;;;;0.10;0.10;;;;;;;6.17;71.70;102962.56;5085116;28;20028;-77
2024/01/13 01:07:56;;;;;;;0.35;0.35;;;;;;;6.19;71.24;102960.84;5081539;28;20029;-79
2024/01/13 01:10:22;;;;;;;0.10;0.10;;;;;;;6.19;71.34;102959.97;5085171;28;20025;-79
2024/01/13 01:12:48;;;;;;;0.32;0.32;;;;;;;6.19;71.47;102949.44;5079670;28;20028;-78
2024/01/13 01:15:14;;;;;;;0.10;0.10;;;;;;;6.19;71.76;102944.19;5083242;28;20070;-78
2024/01/13 01:17:41;;;;;;;0.10;0.10;;;;;;;6.19;71.45;102949.44;5076795;28;20032;-76
2024/01/13 01:20:07;;;;;;;0.13;0.13;;;;;;;6.19;71.38;102938.91;5064664;28;20132;-76
2024/01/13 01:22:34;;;;;;;0.20;0.20;;;;;;;6.17;71.42;102936.25;5061737;28;20086;-77
2024/01/13 01:25:00;;;;;;;0.10;0.10;;;;;;;6.18;72.08;102945.94;5071831;28;20074;-76
2024/01/13 01:27:26;;;;;;;0.10;0.10;;;;;;;6.19;71.90;102945.06;5079325;28;20108;-77
2024/01/13 01:29:52;;;;;;;0.10;0.10;;;;;;;6.21;71.54;102947.75;5086051;28;20043;-78
2024/01/13 01:32:18;;;;;;;0.10;0.10;;;;;;;6.21;71.58;102942.50;5081329;28;20565;-78
2024/01/13 01:34:45;;;;;;;0.17;0.17;;;;;;;6.17;71.70;102932.69;5082121;28;20445;-77
2024/01/13 01:37:11;;;;;;;0.80;0.80;;;;;;;6.22;71.47;102936.34;5083390;28;20020;-78
2024/01/13 01:39:37;;;;;;;2.30;2.20;;;;;;;6.20;71.54;102938.06;5081512;28;20036;-78
2024/01/13 01:42:04;;;;;;;0.15;0.15;;;;;;;6.15;72.21;102928.28;5082881;28;20020;-78
2024/01/13 01:44:30;;;;;;;0.10;0.10;;;;;;;6.20;71.55;102931.06;5083232;28;20036;-78
2024/01/13 01:47:00;;;;;;;0.30;0.30;;;;;;;6.22;71.61;102920.56;5077743;28;20052;-77
2024/01/13 01:49:26;;;;;;;0.22;0.22;;;;;;;6.20;71.84;102927.53;5081573;28;20027;-77
2024/01/13 01:51:52;;;;;;;0.10;0.10;;;;;;;6.21;71.52;102918.81;5079714;28;20028;-77
2024/01/13 01:54:19;;;;;;;0.52;0.52;;;;;;;6.19;72.04;102916.09;5088380;28;20107;-77
2024/01/13 01:56:45;;;;;;;0.60;0.60;;;;;;;6.20;71.50;102910.00;5076515;28;20039;-77
2024/01/13 01:59:12;;;;;;;0.10;0.10;;;;;;;6.19;71.74;102909.97;5074842;28;20104;-77
2024/01/13 02:01:38;;;;;;;0.20;0.20;;;;;;;6.15;72.28;102907.22;5074733;28;20103;-77
2024/01/13 02:04:04;;;;;;;0.20;0.20;;;;;;;6.14;72.28;102910.72;5076666;28;20097;-78
2024/01/13 02:06:31;;;;;;;0.17;0.17;;;;;;;6.09;72.17;102906.13;5069580;28;20111;-77
2024/01/13 02:08:57;;;;;;;0.38;0.38;;;;;;;6.06;72.52;102904.31;5070215;28;20414;-78
2024/01/13 02:11:24;;;;;;;0.10;0.10;;;;;;;6.10;71.74;102900.91;5070947;28;20028;-77
2024/01/13 02:13:50;;;;;;;0.20;0.20;;;;;;;6.08;71.90;102894.72;5072051;28;20112;-78
2024/01/13 02:16:17;;;;;;;0.30;0.30;;;;;;;6.06;72.22;102891.13;5078879;28;20033;-78
2024/01/13 02:18:44;;;;;;;0.20;0.20;;;;;;;6.05;72.47;102893.72;5073822;28;20082;-78
2024/01/13 02:21:11;;;;;;;0.10;0.10;;;;;;;6.03;72.66;102898.03;5077990;28;20381;-79
2024/01/13 02:23:37;;;;;;;0.20;0.20;;;;;;;6.06;72.28;102892.91;5072840;28;20032;-79
2024/01/13 02:26:04;;;;;;;0.10;0.10;;;;;;;6.07;72.17;102892.94;5074764;28;20063;-79
2024/01/13 02:28:31;;;;;;;0.10;0.10;;;;;;;6.05;72.35;102881.44;5074756;28;20058;-79
2024/01/13 02:30:57;;;;;;;0.20;0.20;;;;;;;6.08;72.53;102878.94;5065214;28;20036;-79
2024/01/13 02:33:23;;;;;;;0.13;0.13;;;;;;;6.06;72.58;102862.19;5074458;28;20028;-79
2024/01/13 02:35:49;;;;;;;0.20;0.20;;;;;;;6.09;71.80;102858.75;5074415;28;20450;-79
2024/01/13 02:38:15;;;;;;;0.40;0.40;;;;;;;6.08;72.15;102854.34;5075516;28;20029;-79
2024/01/13 02:40:41;;;;;;;0.35;0.35;;;;;;;6.05;72.55;102852.50;5076848;28;20025;-78
2024/01/13 02:43:08;;;;;;;0.17;0.17;;;;;;;6.04;72.10;102845.44;5075495;28;20024;-78
2024/01/13 02:45:34;;;;;;;0.20;0.20;;;;;;;6.05;72.23;102834.09;5073577;28;20041;-78
2024/01/13 02:48:09;;;;;;;0.10;0.10;;;;;;;6.04;72.72;102828.78;5072368;28;20111;-79
2024/01/13 02:50:35;;;;;;;0.15;0.15;;;;;;;6.03;72.47;102832.25;5074142;28;20436;-79
2024/01/13 02:53:01;;;;;;;0.25;0.25;;;;;;;5.95;72.94;102829.34;5073295;28;20031;-78
2024/01/13 02:55:27;;;;;;;0.10;0.10;;;;;;;6.02;72.39;102834.00;5074985;28;20036;-78
2024/01/13 02:57:53;;;;;;;0.20;0.20;;;;;;;6.01;72.14;102828.66;5074769;28;20086;-79
2024/01/13 03:00:20;;;;;;;0.10;0.10;;;;;;;6.01;72.08;102819.06;5073407;28;20029;-79
2024/01/13 03:02:46;;;;;;;0.47;0.47;;;;;;;6.02;72.37;102820.84;5080375;28;20024;-77
2024/01/13 03:05:12;;;;;;;0.20;0.20;;;;;;;6.04;72.41;102813.88;5087897;28;20047;-76
2024/01/13 03:07:38;;;;;;;0.20;0.20;;;;;;;6.04;71.86;102813.88;5073139;28;20047;-76
2024/01/13 03:10:05;;;;;;;0.30;0.30;;;;;;;6.04;72.62;102808.59;5074968;28;20698;-76
2024/01/13 03:12:31;;;;;;;0.10;0.10;;;;;;;6.04;72.44;102803.34;5076561;28;20028;-76
2024/01/13 03:14:58;;;;;;;0.20;0.20;;;;;;;6.02;71.85;102804.16;5069646;28;20028;-77
2024/01/13 03:17:24;;;;;;;0.10;0.10;;;;;;;5.97;72.58;102806.63;5070411;28;20032;-77
2024/01/13 03:19:50;;;;;;;0.35;0.35;;;;;;;6.03;72.60;102800.69;5074239;28;20029;-77
2024/01/13 03:22:17;;;;;;;0.10;0.10;;;;;;;6.01;72.48;102792.75;5069797;28;20077;-77
2024/01/13 03:24:43;;;;;;;0.10;0.10;;;;;;;6.02;72.58;102789.28;5070265;28;20036;-77
2024/01/13 03:27:09;;;;;;;0.40;0.40;;;;;;;6.06;72.72;102785.88;5074690;28;20047;-76
2024/01/13 03:29:35;;;;;;;0.20;0.20;;;;;;;6.06;72.61;102785.88;5070341;28;20032;-77
2024/01/13 03:32:01;;;;;;;0.20;0.20;;;;;;;6.06;72.71;102780.63;5069529;28;20545;-77
2024/01/13 03:34:29;;;;;;;0.20;0.20;;;;;;;6.07;72.58;102771.88;5069873;28;20024;-77
2024/01/13 03:36:55;;;;;;;0.10;0.10;;;;;;;6.03;73.14;102775.28;5069872;28;20628;-77
2024/01/13 03:39:21;;;;;;;0.13;0.13;;;;;;;5.99;72.96;102769.03;5069694;28;20604;-77
2024/01/13 03:41:49;;;;;;;0.75;0.75;;;;;;;5.98;72.86;102771.56;5069001;28;20584;-77
2024/01/13 03:44:15;;;;;;;0.10;0.10;;;;;;;5.97;72.77;102756.63;5070753;28;20423;-77
2024/01/13 03:46:41;;;;;;;0.73;0.73;;;;;;;5.87;73.11;102754.56;5069617;28;20111;-77
2024/01/13 03:49:07;;;;;;;0.20;0.20;;;;;;;5.92;73.05;102755.56;5069481;28;20066;-77
2024/01/13 03:51:33;;;;;;;0.47;0.47;;;;;;;5.92;72.97;102750.31;5069427;28;20499;-77
2024/01/13 03:54:00;;;;;;;0.22;0.22;;;;;;;5.84;73.43;102750.09;5069903;28;20036;-77
2024/01/13 03:56:26;;;;;;;0.20;0.20;;;;;;;5.94;73.20;102744.28;5072034;28;20040;-77
2024/01/13 03:58:52;;;;;;;0.20;0.20;;;;;;;5.92;73.09;102742.41;5069071;28;20040;-77
2024/01/13 04:01:18;;;;;;;0.10;0.10;;;;;;;5.92;73.70;102739.78;5068322;28;20037;-77
2024/01/13 04:03:44;;;;;;;1.15;0.88;;;;;;;5.94;73.13;102738.09;5070603;28;20127;-78
2024/01/13 04:06:10;;;;;;;0.22;0.22;;;;;;;6.00;73.43;102727.81;5070883;28;20021;-78
2024/01/13 04:08:37;;;;;;;0.10;0.10;;;;;;;5.98;73.23;102718.91;5072090;28;20028;-78
2024/01/13 04:11:08;;;;;;;0.10;0.10;;;;;;;6.02;73.40;102720.84;5077267;28;20032;-78
2024/01/13 04:13:35;;;;;;;0.10;0.10;;;;;;;6.04;73.47;102723.53;5076757;28;20041;-78
2024/01/13 04:16:01;;;;;;;0.20;0.20;;;;;;;6.06;73.26;102722.72;5084940;28;20656;-77
2024/01/13 04:18:27;;;;;;;0.10;0.10;;;;;;;6.06;73.25;102722.72;5077524;28;20271;-78
2024/01/13 04:20:54;;;;;;;0.10;0.10;;;;;;;6.05;73.10;102720.94;5070499;28;20673;-78
2024/01/13 04:23:20;;;;;;;0.10;0.10;;;;;;;6.05;73.41;102717.41;5076356;28;20427;-78
2024/01/13 04:25:46;;;;;;;0.68;0.65;;;;;;;6.04;73.29;102708.59;5077344;28;20086;-79
2024/01/13 04:28:12;;;;;;;0.20;0.20;;;;;;;6.07;73.03;102705.19;5083231;28;20079;-78
2024/01/13 04:30:38;;;;;;;0.20;0.20;;;;;;;6.06;73.40;102706.94;5074002;28;20042;-78
2024/01/13 04:33:04;;;;;;;0.20;0.20;;;;;;;6.08;73.24;102702.59;5074159;28;20067;-78
2024/01/13 04:35:31;;;;;;;0.20;0.20;;;;;;;6.09;73.54;102706.13;5077108;28;20496;-78
2024/01/13 04:37:57;;;;;;;0.20;0.20;;;;;;;6.11;73.71;102715.84;5076286;28;20516;-79
2024/01/13 04:40:24;;;;;;;0.15;0.15;;;;;;;6.15;73.48;102719.47;5076553;28;20033;-78
2024/01/13 04:42:50;;;;;;;0.20;0.20;;;;;;;6.18;72.80;102711.66;5081151;28;20486;-79
2024/01/13 04:45:16;;;;;;;0.30;0.30;;;;;;;6.17;73.37;102714.22;5076219;28;20594;-78
2024/01/13 04:47:42;;;;;;;0.10;0.10;;;;;;;6.13;73.50;102707.97;5072251;28;20029;-78
2024/01/13 04:50:09;;;;;;;0.20;0.20;;;;;;;6.13;73.31;102700.09;5074755;28;20020;-78
2024/01/13 04:52:37;;;;;;;0.10;0.10;;;;;;;6.17;73.49;102699.34;5073167;28;20028;-78
2024/01/13 04:55:03;;;;;;;0.20;0.20;;;;;;;6.19;73.39;102702.00;5074621;28;20527;-78
2024/01/13 04:57:30;;;;;;;0.10;0.10;;;;;;;6.19;73.18;102702.00;5079200;28;20040;-79
2024/01/13 04:59:56;;;;;;;0.20;0.20;;;;;;;6.20;73.25;102698.53;5080638;28;20061;-78
2024/01/13 05:02:22;;;;;;;0.20;0.20;;;;;;;6.18;73.51;102700.22;5075372;28;20404;-79
2024/01/13 05:04:48;;;;;;;0.10;0.10;;;;;;;6.20;73.35;102695.91;5077362;28;20553;-79
2024/01/13 05:07:15;;;;;;;0.20;0.20;;;;;;;6.22;73.32;102696.81;5075271;28;20040;-78
2024/01/13 05:09:41;;;;;;;0.13;0.13;;;;;;;6.22;73.62;102703.00;5076975;28;20017;-79
2024/01/13 05:12:07;;;;;;;3.50;1.15;;;;;;;6.23;73.33;102714.41;5079266;28;20375;-78
2024/01/13 05:14:34;;;;;;;0.45;0.45;;;;;;;6.22;74.35;102713.53;5079790;28;20024;-79
2024/01/13 05:17:00;;;;;;;1.10;1.10;;;;;;;6.27;74.13;102711.91;5074951;28;20024;-78
2024/01/13 05:19:26;;;;;;;0.20;0.20;;;;;;;6.38;73.92;102716.56;5075553;28;20395;-79
2024/01/13 05:21:52;;;;;;;0.20;0.20;;;;;;;6.41;73.63;102711.41;5072948;28;20091;-78
2024/01/13 05:24:19;;;;;;;0.10;0.10;;;;;;;6.45;73.45;102716.78;5074612;28;20024;-78
2024/01/13 05:26:45;;;;;;;0.20;0.20;;;;;;;6.49;73.53;102720.38;5091574;28;20104;-78
2024/01/13 05:29:11;;;;;;;0.45;0.45;;;;;;;6.50;74.06;102718.66;5085142;28;20036;-78
2024/01/13 05:31:37;;;;;;;0.30;0.30;;;;;;;6.53;73.94;102703.84;5075847;28;20032;-78
2024/01/13 05:34:03;;;;;;;0.20;0.20;;;;;;;6.52;73.80;102695.88;5073396;28;20535;-78
2024/01/13 05:36:30;;;;;;;1.33;1.33;;;;;;;6.55;73.73;102690.72;5072038;28;20036;-78
2024/01/13 05:38:56;;;;;;;0.20;0.20;;;;;;;6.57;73.86;102678.47;5079566;28;20028;-78
2024/01/13 05:41:22;;;;;;;0.10;0.10;;;;;;;6.57;74.05;102673.22;5077601;28;20436;-78
2024/01/13 05:43:48;;;;;;;0.20;0.20;;;;;;;6.56;73.96;102659.13;5076861;28;20499;-78
2024/01/13 05:46:14;;;;;;;0.20;0.20;;;;;;;6.62;73.74;102661.03;5072631;28;20044;-78
2024/01/13 05:48:40;;;;;;;0.10;0.10;;;;;;;6.60;73.31;102663.66;5078682;28;20016;-78
2024/01/13 05:51:08;;;;;;;0.20;0.20;;;;;;;6.63;73.55;102657.56;5090118;28;20032;-78
2024/01/13 05:53:34;;;;;;;0.10;0.10;;;;;;;6.61;73.56;102656.63;5076521;28;20046;-78
2024/01/13 05:56:00;;;;;;;0.50;0.50;;;;;;;6.62;73.71;102661.94;5075706;28;20021;-78
2024/01/13 05:58:27;;;;;;;0.28;0.28;;;;;;;6.62;73.37;102668.94;5073056;28;20052;-78
2024/01/13 06:00:53;;;;;;;0.10;0.10;;;;;;;6.60;73.58;102668.00;5069170;28;20059;-78
2024/01/13 06:03:19;;;;;;;0.30;0.30;;;;;;;6.60;73.38;102668.00;5072720;28;20024;-78
2024/01/13 06:05:45;;;;;;;0.20;0.20;;;;;;;6.58;73.62;102664.44;5074288;28;20017;-79
2024/01/13 06:08:11;;;;;;;0.10;0.10;;;;;;;6.61;73.43;102669.78;5073469;28;20028;-78
2024/01/13 06:10:38;;;;;;;0.10;0.10;;;;;;;6.62;73.34;102658.41;5072708;28;20047;-79
2024/01/13 06:13:04;;;;;;;0.10;0.10;;;;;;;6.54;73.46;102652.03;5074175;28;20028;-79
2024/01/13 06:15:30;;;;;;;0.10;0.10;;;;;;;6.57;73.92;102646.88;5077746;28;20538;-79
2024/01/13 06:17:56;;;;;;;0.20;0.20;;;;;;;6.56;73.82;102647.72;5074482;28;20025;-79
2024/01/13 06:20:22;;;;;;;0.57;0.57;;;;;;;6.56;73.57;102655.63;5075045;28;20028;-79
2024/01/13 06:22:48;;;;;;;0.32;0.32;;;;;;;6.42;74.16;102664.03;5074312;28;20025;-79
2024/01/13 06:25:15;;;;;;;1.65;1.20;;;;;;;6.48;73.78;102642.25;5075481;28;20033;-77
2024/01/13 06:27:41;;;;;;;0.20;0.20;;;;;;;6.39;73.78;102624.47;5073335;28;20043;-78
2024/01/13 06:30:09;;;;;;;0.10;0.10;;;;;;;6.44;73.45;102601.78;5071689;28;20103;-78
2024/01/13 06:32:35;;;;;;;0.10;0.10;;;;;;;6.44;73.78;102591.25;5071252;28;20438;-79
2024/01/13 06:35:02;;;;;;;0.10;0.10;;;;;;;6.52;73.33;102595.81;5076874;28;20029;-78
2024/01/13 06:37:28;;;;;;;0.10;0.10;;;;;;;6.51;73.10;102589.66;5085658;28;20459;-77
2024/01/13 06:39:54;;;;;;;0.15;0.15;;;;;;;6.55;73.17;102585.34;5086575;28;20036;-78
2024/01/13 06:42:20;;;;;;;0.10;0.10;;;;;;;6.46;73.17;102586.91;5082042;28;20040;-77
2024/01/13 06:44:46;;;;;;;0.10;0.10;;;;;;;6.46;73.09;102592.16;5074779;28;20111;-78
2024/01/13 06:47:13;;;;;;;0.28;0.28;;;;;;;6.55;72.77;102588.00;5073180;28;20063;-78
2024/01/13 06:49:39;;;;;;;0.55;0.35;;;;;;;6.49;72.89;102565.00;5073297;28;20032;-79
2024/01/13 06:52:05;;;;;;;0.10;0.10;;;;;;;6.43;73.08;102557.88;5074869;28;20113;-77
2024/01/13 06:54:31;;;;;;;0.20;0.20;;;;;;;6.47;72.83;102565.00;5072494;28;20040;-77
2024/01/13 06:56:57;;;;;;;0.20;0.20;;;;;;;6.44;73.25;102564.00;5064283;28;20074;-77
2024/01/13 06:59:23;;;;;;;0.10;0.10;;;;;;;6.39;72.97;102568.28;5078344;28;20075;-77
2024/01/13 07:01:49;;;;;;;0.20;0.20;;;;;;;6.29;73.24;102551.38;5071559;28;20090;-78
2024/01/13 07:04:16;;;;;;;0.20;0.20;;;;;;;6.36;72.63;102563.84;5072470;28;20039;-78
2024/01/13 07:06:42;;;;;;;0.35;0.35;;;;;;;6.37;72.60;102573.53;5070962;28;20059;-78
2024/01/13 07:09:08;;;;;;;0.15;0.15;;;;;;;6.46;72.49;102560.56;5070486;28;20056;-77
2024/01/13 07:11:35;;;;;;;0.30;0.30;;;;;;;6.43;72.34;102572.75;5069871;28;20082;-77
2024/01/13 07:14:01;;;;;;;0.10;0.10;;;;;;;6.48;72.39;102564.13;5071207;28;20111;-78
2024/01/13 07:16:28;;;;;;;0.20;0.20;;;;;;;6.41;71.84;102556.94;5071829;28;20039;-77
2024/01/13 07:18:54;;;;;;;0.30;0.30;;;;;;;6.46;72.10;102557.94;5071302;28;20032;-78
2024/01/13 07:21:20;;;;;;;0.10;0.10;;;;;;;6.47;72.04;102538.66;5070997;28;20033;-77
2024/01/13 07:23:46;;;;;;;0.68;0.43;;;;;;;6.54;71.99;102523.91;5071645;28;20032;-77
2024/01/13 07:26:14;;;;;;;0.10;0.10;;;;;;;6.57;71.55;102516.06;5070359;28;20450;-77
2024/01/13 07:28:41;;;;;;;0.10;0.10;;;;;;;6.52;71.53;102532.59;5083221;28;20031;-78
2024/01/13 07:31:07;;;;;;;0.28;0.28;;;;;;;6.44;71.56;102530.69;5081985;28;20035;-79
2024/01/13 07:33:33;;;;;;;0.10;0.10;;;;;;;6.48;71.81;102524.63;5081794;28;20036;-78
2024/01/13 07:35:59;;;;;;;0.68;0.68;;;;;;;6.53;71.88;102518.59;5081353;28;20099;-78
2024/01/13 07:38:26;;;;;;;0.10;0.10;;;;;;;6.50;71.66;102516.78;5080165;28;20048;-78
2024/01/13 07:40:52;;;;;;;0.20;0.20;;;;;;;6.46;71.50;102536.88;5084258;28;20032;-77
2024/01/13 07:43:18;;;;;;;0.20;0.20;;;;;;;6.44;71.43;102541.22;5083635;28;20090;-77
2024/01/13 07:45:44;;;;;;;0.10;0.10;;;;;;;6.38;71.61;102525.28;5084740;28;20040;-77
2024/01/13 07:48:10;;;;;;;0.70;0.50;;;;;;;6.33;70.90;102532.19;5090201;28;20079;-76
2024/01/13 07:50:36;;;;;;;0.15;0.15;;;;;;;6.39;71.04;102521.81;5099547;28;20020;-76
2024/01/13 07:53:03;;;;;;;0.10;0.10;;;;;;;6.21;71.11;102527.47;5087705;28;20209;-78
2024/01/13 07:55:29;;;;;;;1.92;1.10;;;;;;;6.32;71.01;102556.72;5084541;28;20496;-77
2024/01/13 07:57:55;;;;;;;0.20;0.20;;;;;;;6.34;70.60;102544.47;5066028;28;20032;-76
2024/01/13 08:00:23;;;;;;;0.10;0.10;;;;;;;6.45;70.83;102521.91;5061609;28;20128;-78
2024/01/13 08:02:49;;;;;;;0.15;0.15;;;;;;;6.45;70.16;102527.19;5065828;28;20029;-77
2024/01/13 08:05:15;;;;;;;0.17;0.17;;;;;;;6.45;70.07;102526.31;5070305;28;20021;-76
2024/01/13 08:07:42;;;;;;;4.47;0.70;;;;;;;6.54;70.20;102515.09;5065186;28;20029;-77
2024/01/13 08:10:09;;;;;;;0.30;0.30;;;;;;;6.53;70.16;102514.22;5064568;28;20040;-77
2024/01/13 08:12:36;;;;;;;0.15;0.15;;;;;;;6.44;70.20;102520.16;5077456;28;20037;-76
2024/01/13 08:15:03;;;;;;;0.30;0.30;;;;;;;6.56;70.16;102519.56;5073315;28;20033;-77
2024/01/13 08:17:29;;;;;;;0.40;0.40;;;;;;;6.55;69.67;102512.50;5066140;28;20531;-78
2024/01/13 08:19:55;;;;;;;0.10;0.10;;;;;;;6.49;69.87;102530.78;5081476;28;20430;-78
2024/01/13 08:22:22;;;;;;;0.20;0.20;;;;;;;6.48;69.86;102521.13;5086333;28;20032;-77
2024/01/13 08:24:48;;;;;;;0.13;0.13;;;;;;;6.55;70.24;102528.28;5086973;28;20115;-78
2024/01/13 08:27:14;;;;;;;0.13;0.13;;;;;;;6.44;69.79;102529.78;5081547;28;20090;-78
2024/01/13 08:29:40;;;;;;;0.10;0.10;;;;;;;6.38;69.85;102522.66;5068573;28;20032;-77
2024/01/13 08:32:07;;;;;;;1.98;1.88;;;;;;;6.52;70.31;102514.16;5065238;28;20381;-78
2024/01/13 08:34:34;;;;;;;0.20;0.20;;;;;;;6.54;70.27;102504.56;5073922;28;20029;-80
2024/01/13 08:37:00;;;;;;;0.10;0.10;;;;;;;6.59;69.92;102511.75;5074084;28;20032;-77
2024/01/13 08:39:26;;;;;;;0.10;0.10;;;;;;;6.50;69.81;102514.13;5071142;28;20050;-79
2024/01/13 08:41:52;;;;;;;0.20;0.20;;;;;;;6.37;70.20;102518.22;5076539;28;20052;-79
2024/01/13 08:44:18;;;;;;;0.17;0.17;;;;;;;6.40;70.49;102515.66;5081267;28;20025;-80
2024/01/13 08:46:47;;;;;;;0.63;0.63;;;;;;;6.39;69.82;102515.63;5076352;28;20100;-79
2024/01/13 08:49:14;;;;;;;0.40;0.40;;;;;;;6.39;69.46;102516.53;5077042;28;20554;-78
2024/01/13 08:51:40;;;;;;;0.20;0.20;;;;;;;6.43;69.49;102513.13;5077588;28;20032;-78
2024/01/13 08:54:07;;;;;;;0.20;0.20;;;;;;;6.43;69.30;102523.66;5078228;28;20102;-77
2024/01/13 08:56:34;;;;;;;0.20;0.20;;;;;;;6.40;68.97;102506.88;5085526;28;20042;-78
2024/01/13 08:59:02;;;;;;;0.35;0.35;;;;;;;6.47;68.94;102493.88;5085620;28;20104;-76
2024/01/13 09:01:28;;;;;;;0.20;0.20;;;;;;;6.41;69.26;102504.28;5089732;28;20040;-79
2024/01/13 09:03:54;;;;;;;0.20;0.20;;;;;;;6.41;68.59;102498.13;5082157;28;20479;-79
2024/01/13 09:06:21;;;;;;;0.15;0.15;;;;;;;6.47;68.97;102498.28;5080809;28;20036;-80
2024/01/13 09:08:47;;;;;;;0.20;0.20;;;;;;;6.40;68.68;102505.13;5079306;28;20031;-78
2024/01/13 09:11:13;;;;;;;0.20;0.20;;;;;;;6.41;68.48;102506.91;5071771;28;20052;-79
2024/01/13 09:13:39;;;;;;;0.20;0.20;;;;;;;6.44;68.42;102519.25;5085011;28;20055;-78
2024/01/13 09:16:06;;;;;;;0.10;0.10;;;;;;;6.40;68.22;102513.03;5082669;28;20028;-80
2024/01/13 09:18:32;;;;;;;0.10;0.10;;;;;;;6.41;68.09;102501.63;5081853;28;20446;-79
2024/01/13 09:20:58;;;;;;;0.65;0.65;;;;;;;6.45;68.12;102511.38;5083357;28;20037;-78
2024/01/13 09:23:24;;;;;;;0.38;0.38;;;;;;;6.36;68.24;102489.25;5090366;28;20531;-75
2024/01/13 09:25:50;;;;;;;0.65;0.65;;;;;;;6.32;67.79;102486.50;5087012;28;20028;-79
2024/01/13 09:28:16;;;;;;;3.50;1.45;;;;;;;6.33;67.69;102487.44;5089450;28;20036;-78
2024/01/13 09:30:42;;;;;;;0.20;0.20;;;;;;;6.45;67.23;102469.25;5089245;28;20024;-79
2024/01/13 09:33:09;;;;;;;0.20;0.20;;;;;;;6.39;67.15;102471.78;5084244;28;20036;-78
2024/01/13 09:35:35;;;;;;;1.23;1.13;;;;;;;6.35;66.76;102488.34;5090805;28;20040;-78
2024/01/13 09:38:01;;;;;;;1.75;1.70;;;;;;;6.53;66.69;102481.72;5088772;28;20031;-78
2024/01/13 09:40:27;;;;;;;0.52;0.52;;;;;;;6.45;67.21;102477.16;5086305;28;20078;-76
2024/01/13 09:45:35;;;;;;;0.50;0.50;;;;;;;6.52;66.37;102477.31;5117766;27;20380;-77
2024/01/13 09:48:03;;;;;;;0.20;0.20;;;;;;;6.52;65.98;102469.41;5113430;28;20034;-78
2024/01/13 09:50:29;;;;;;;0.20;0.20;;;;;;;6.61;66.58;102472.25;5117440;28;20417;-82
2024/01/13 09:52:59;;;;;;;0.20;0.20;;;;;;;6.58;66.33;102466.91;5109685;28;20020;-80
2024/01/13 09:55:27;;;;;;;0.20;0.20;;;;;;;6.60;66.44;102474.03;5104213;28;20093;-80
2024/01/13 09:57:54;;;;;;;0.30;0.30;;;;;;;6.50;66.47;102468.50;5111865;28;20129;-80
2024/01/13 10:00:20;;;;;;;0.30;0.30;;;;;;;6.49;66.67;102470.22;5103572;28;20031;-81
2024/01/13 10:02:46;;;;;;;0.30;0.30;;;;;;;6.46;65.86;102472.78;5115086;28;20039;-80
2024/01/13 10:05:12;;;;;;;1.13;0.50;;;;;;;6.43;66.61;102476.25;5109786;28;20053;-83
2024/01/13 10:07:44;;;;;;;0.10;0.10;;;;;;;6.54;66.35;102472.97;5117477;28;20028;-80
2024/01/13 10:10:10;;;;;;;0.10;0.10;;;;;;;6.44;66.69;102477.13;5123755;27;20153;-80
2024/01/13 10:12:38;;;;;;;0.22;0.22;;;;;;;6.48;65.84;102469.34;5125252;28;20015;-79
2024/01/13 10:15:13;;;;;;;0.20;0.20;;;;;;;6.54;65.95;102471.25;5124687;28;20039;-80
2024/01/13 10:17:40;;;;;;;0.22;0.22;;;;;;;6.39;65.97;102474.41;5121314;28;20027;-80
2024/01/13 10:20:13;;;;;;;0.38;0.38;;;;;;;6.40;66.23;102478.78;5118217;28;20028;-80
2024/01/13 10:22:39;;;;;;;0.68;0.68;;;;;;;6.44;66.29;102471.88;5114161;28;20077;-79
2024/01/13 10:25:07;;;;;;;1.30;1.30;;;;;;;6.40;66.02;102476.16;5108400;28;20027;-79
2024/01/13 10:27:35;;;;;;;4.68;1.42;;;;;;;6.44;65.77;102467.50;5103265;27;20032;-78
2024/01/13 10:30:06;;;;;;;0.15;0.15;;;;;;;6.26;65.65;102475.84;5100336;28;20467;-79
2024/01/13 10:32:32;;;;;;;0.20;0.20;;;;;;;6.21;65.90;102464.31;5108243;28;20119;-79
2024/01/13 10:34:59;;;;;;;1.42;1.33;;;;;;;6.31;65.36;102462.78;5116369;28;20024;-79
2024/01/13 10:37:27;;;;;;;1.20;1.20;;;;;;;6.28;65.35;102460.06;5113543;28;21486;-79
2024/01/13 10:39:54;;;;;;;0.20;0.20;;;;;;;6.33;65.62;102453.19;5110401;28;20123;-79
2024/01/13 10:42:26;;;;;;;0.28;0.28;;;;;;;6.39;65.86;102452.44;5113133;28;20051;-81
2024/01/13 10:44:59;;;;;;;0.20;0.20;;;;;;;6.36;65.81;102448.00;5107242;28;20027;-82
2024/01/13 10:47:31;;;;;;;1.00;1.00;;;;;;;6.39;65.93;102442.81;5107451;28;20432;-80
2024/01/13 10:49:58;;;;;;;0.22;0.22;;;;;;;6.32;65.89;102441.75;5105798;28;20020;-82
2024/01/13 10:52:32;;;;;;;0.20;0.20;;;;;;;6.44;65.59;102433.28;5096187;28;20055;-80
2024/01/13 10:55:04;;;;;;;0.20;0.20;;;;;;;6.40;65.66;102443.69;5091608;28;20032;-80
2024/01/13 10:57:33;;;;;;;0.20;0.20;;;;;;;6.43;65.81;102436.75;5089737;28;20127;-81
2024/01/13 11:00:00;;;;;;;0.45;0.45;;;;;;;6.43;65.62;102444.66;5092727;28;20407;-80
2024/01/13 11:02:29;;;;;;;0.20;0.20;;;;;;;6.38;66.06;102446.28;5093981;28;20037;-80
2024/01/13 11:04:58;;;;;;;0.75;0.75;;;;;;;6.37;66.25;102449.78;5092956;28;20115;-80
2024/01/13 11:07:25;;;;;;;0.20;0.20;;;;;;;6.30;65.93;102443.47;5100777;28;20403;-78
2024/01/13 11:09:54;;;;;;;0.20;0.20;;;;;;;6.42;66.17;102440.25;5102989;28;20036;-79
2024/01/13 11:12:32;;;;;;;0.22;0.22;;;;;;;6.52;66.19;102432.53;5098685;28;20035;-78
2024/01/13 11:15:11;;;;;;;0.50;0.50;;;;;;;6.48;66.23;102428.97;5093846;28;20089;-78
2024/01/13 11:17:39;;;;;;;0.40;0.40;;;;;;;6.39;65.97;102427.03;5100513;28;20081;-78
2024/01/13 11:20:08;;;;;;;2.88;1.33;;;;;;;6.46;66.16;102421.00;5100334;28;20028;-78
2024/01/13 11:25:24;;;;;;;0.75;0.75;;;;;;;6.52;65.69;102411.47;5104718;27;20052;-79
2024/01/13 11:27:56;;;;;;;0.25;0.25;;;;;;;6.46;66.06;102412.22;5102325;28;20323;-80
2024/01/13 11:33:12;;;;;;;4.18;1.80;;;;;;;6.52;65.52;102385.13;5122155;27;20372;-79
2024/01/13 11:35:39;;;;;;;0.32;0.32;;;;;;;6.53;65.63;102381.66;5120071;28;20110;-78
2024/01/13 11:38:07;;;;;;;2.80;0.85;;;;;;;6.54;65.48;102378.16;5120144;28;20081;-78
2024/01/13 11:40:34;;;;;;;0.40;0.40;;;;;;;6.56;65.83;102376.47;5119987;28;20028;-78